U21306 / HB-JYJ 7700 Squawk Report (6th of August, 2022)

Aircraft A319 Reg No. HB-JYJ Age 11 years old
Model A319 Jet engines 2 First flight 02-05-11
Registered 11-11-15 Rollout N/A Delivered 26-05-11
Construction No. 4717 Line No. N/A Series 111
ADSHEX 4B1A3D Airline name EasyJet Switzerland Owner N/A
Airfield based Geneva-Cointrin~Geneva~HB First tracked N/A

Flight history for HB-JYJ

Route Flight No Date Playback
Lesquin (LIL) - Geneve Cointrin (GVA) U21472 2022-08-11 20:11:00
Geneve Cointrin (GVA) - Lesquin (LIL) U21471 2022-08-11 19:09:00
La Rochelle-Ile de Re (LRH) - Geneve Cointrin (GVA) U21478 2022-08-11 16:33:00
Geneve Cointrin (GVA) - La Rochelle-Ile de Re (LRH) U21477 2022-08-11 15:21:00
Alicante (ALC) - Geneve Cointrin (GVA) U21430 2022-08-08 19:48:00
Geneve Cointrin (GVA) - Alicante (ALC) U21429 2022-08-08 17:06:00
Václav Havel Airport Prague (PRG) - Geneve Cointrin (GVA) U21322 2022-08-08 14:27:00
Geneve Cointrin (GVA) - Václav Havel Airport Prague (PRG) U21321 2022-08-08 10:08:00
Nantes Atlantique (NTE) - Geneve Cointrin (GVA) U21364 2022-08-08 07:57:00
Geneve Cointrin (GVA) - Nantes Atlantique (NTE) U21363 2022-08-08 06:51:00
Eleftherios Venizelos Intl (ATH) - Geneve Cointrin (GVA) U21422 2022-08-08 04:41:00
Geneve Cointrin (GVA) - Eleftherios Venizelos Intl (ATH) U21421 2022-08-07 17:45:00
Casale (BDS) - Geneve Cointrin (GVA) U21546 2022-08-07 14:49:00
Geneve Cointrin (GVA) - Casale (BDS) U21545 2022-08-07 11:21:00
Olbia Costa Smeralda (OLB) - Geneve Cointrin (GVA) U21502 2022-08-07 08:37:00
Geneve Cointrin (GVA) - Olbia Costa Smeralda (OLB) U21501 2022-08-07 06:20:00
Cote D Azur (NCE) - Geneve Cointrin (GVA) U21390 2022-08-06 15:37:00
Geneve Cointrin (GVA) - Cote D Azur (NCE) U21389 2022-08-06 14:44:00
Campo Dell Oro (AJA) - Geneve Cointrin (GVA) U21306 2022-08-06 09:52:00
Geneve Cointrin (GVA) - Campo Dell Oro (AJA) U21305 2022-08-06 06:25:00
Time Lat Lon Altitude Heading Speed Vertical Rate
2022-08-06 09:50:56 GMT 46.234962 6.109240 0 135 0 0
2022-08-06 09:50:54 GMT 46.234955 6.109236 0 135 0 0
2022-08-06 09:50:43 GMT 46.234974 6.109240 0 135 0 0
2022-08-06 09:50:33 GMT 46.234997 6.109222 0 135 2 0
2022-08-06 09:50:23 GMT 46.235081 6.109085 0 135 3 0
2022-08-06 09:50:13 GMT 46.235195 6.108913 0 135 5 0
2022-08-06 09:50:03 GMT 46.235332 6.108666 0 154 6 0
2022-08-06 09:49:53 GMT 46.235577 6.108622 0 225 9 0
2022-08-06 09:49:42 GMT 46.235905 6.109119 0 225 12 0
2022-08-06 09:49:32 GMT 46.236313 6.109703 0 225 15 0
2022-08-06 09:49:22 GMT 46.236763 6.110391 0 225 13 0
2022-08-06 09:49:12 GMT 46.237289 6.110888 0 185 15 0
2022-08-06 09:49:02 GMT 46.237988 6.110793 0 171 15 0
2022-08-06 09:48:51 GMT 46.238605 6.110542 0 120 14 0
2022-08-06 09:48:41 GMT 46.238605 6.109755 0 47 13 0
2022-08-06 09:48:31 GMT 46.237732 6.108467 0 45 49 0
2022-08-06 09:48:21 GMT 46.235847 6.105685 0 45 64 0
2022-08-06 09:48:11 GMT 46.233284 6.101961 1,125 45 98 0
2022-08-06 09:48:01 GMT 46.229691 6.096675 1,125 45 125 -256
2022-08-06 09:47:51 GMT 46.225674 6.090752 1,275 45 124 -576
2022-08-06 09:47:48 GMT 46.224106 6.088435 1,300 45 124 -832
2022-08-06 09:47:43 GMT 46.222183 6.085670 1,375 45 125 -768
2022-08-06 09:47:39 GMT 46.220444 6.083076 1,525 45 126 -704
2022-08-06 09:47:28 GMT 46.216324 6.077047 1,525 45 128 -640
2022-08-06 09:47:20 GMT 46.212872 6.072006 1,625 44 127 -704
2022-08-06 09:47:16 GMT 46.211334 6.069879 1,650 45 127 -704
2022-08-06 09:47:12 GMT 46.209595 6.067267 1,700 45 127 -704
2022-08-06 09:47:09 GMT 46.208496 6.065592 1,750 46 126 -704
2022-08-06 09:47:06 GMT 46.207260 6.063783 1,775 46 127 -512
2022-08-06 09:47:03 GMT 46.206207 6.062175 1,800 46 126 -704
2022-08-06 09:46:57 GMT 46.203468 6.058067 1,875 45 126 -704
2022-08-06 09:46:47 GMT 46.199341 6.052127 1,975 44 127 -448
2022-08-06 09:46:44 GMT 46.198105 6.050385 2,000 45 130 -768
2022-08-06 09:46:37 GMT 46.195312 6.046299 2,075 45 131 -704
2022-08-06 09:46:28 GMT 46.191177 6.040215 2,175 45 132 -832
2022-08-06 09:46:25 GMT 46.189831 6.038155 2,200 45 169 -960
2022-08-06 09:46:17 GMT 46.186665 6.033417 2,300 45 136 -768
2022-08-06 09:46:12 GMT 46.184566 6.030327 2,375 46 135 -640
2022-08-06 09:46:06 GMT 46.182083 6.026604 2,425 45 137 -704
2022-08-06 09:45:57 GMT 46.177460 6.020039 2,575 44 147 -448
2022-08-06 09:45:54 GMT 46.175724 6.017555 2,600 44 153 -640
2022-08-06 09:45:46 GMT 46.172325 6.012611 2,700 45 159 -768
2022-08-06 09:45:42 GMT 46.169765 6.008904 2,750 45 162 -1024
2022-08-06 09:45:34 GMT 46.165924 6.003291 2,825 45 167 -896
2022-08-06 09:45:30 GMT 46.163342 5.999428 5,900 45 169 -960
2022-08-06 09:45:24 GMT 46.159615 5.993935 2,975 45 173 -896
2022-08-06 09:45:16 GMT 46.155800 5.988304 3,125 45 178 -832
2022-08-06 09:45:06 GMT 46.149841 5.979584 3,275 45 182 -832
2022-08-06 09:44:56 GMT 46.143631 5.970466 3,425 45 185 -1024
2022-08-06 09:44:46 GMT 46.137772 5.961892 3,600 45 185 -1024
2022-08-06 09:44:36 GMT 46.131451 5.952667 3,800 45 185 -1152
2022-08-06 09:44:31 GMT 46.128983 5.949030 3,850 45 185 -960
2022-08-06 09:44:24 GMT 46.124844 5.942986 3,975 45 185 -1024
2022-08-06 09:44:13 GMT 46.117447 5.932215 4,175 45 185 -1024
2022-08-06 09:44:04 GMT 46.112686 5.925248 4,300 45 185 -960
2022-08-06 09:43:55 GMT 46.106964 5.916824 4,450 45 184 -1088
2022-08-06 09:43:52 GMT 46.105289 5.914352 4,500 45 183 -1024
2022-08-06 09:43:42 GMT 46.099182 5.905486 4,675 45 183 -1088
2022-08-06 09:43:35 GMT 46.094971 5.899390 4,800 44 184 -1024
2022-08-06 09:43:31 GMT 46.092545 5.895907 4,875 45 185 -1024
2022-08-06 09:43:24 GMT 46.088791 5.890481 4,975 44 188 -1088
2022-08-06 09:43:21 GMT 46.086391 5.887161 5,050 43 188 -1088
2022-08-06 09:43:18 GMT 46.084900 5.885054 5,075 43 189 -832
2022-08-06 09:43:15 GMT 46.082520 5.881839 5,125 43 189 -1088
2022-08-06 09:43:09 GMT 46.078629 5.876614 5,250 42 190 -960
2022-08-06 09:43:04 GMT 46.075916 5.873016 5,300 42 192 -896
2022-08-06 09:42:58 GMT 46.071854 5.867771 5,400 40 194 -768
2022-08-06 09:42:51 GMT 46.066883 5.861618 5,475 39 193 -896
2022-08-06 09:42:48 GMT 46.064667 5.859330 5,550 34 194 -1216
2022-08-06 09:42:45 GMT 46.061737 5.856785 5,650 27 192 -1408
2022-08-06 09:42:39 GMT 46.057995 5.854546 5,750 17 191 -896
2022-08-06 09:42:30 GMT 46.049927 5.851827 5,800 11 189 -64
2022-08-06 09:42:24 GMT 46.044708 5.850287 5,800 11 192 -256
2022-08-06 09:42:21 GMT 46.042027 5.849533 5,825 7 196 -832
2022-08-06 09:42:16 GMT 46.038162 5.848503 5,850 7 196 -832
2022-08-06 09:42:13 GMT 46.035049 5.847875 5,975 0 199 -1152
2022-08-06 09:42:08 GMT 46.030388 5.847542 6,000 356 199 -1280
2022-08-06 09:42:04 GMT 46.026569 5.848228 6,100 346 200 -1472
2022-08-06 09:42:01 GMT 46.024151 5.849258 6,175 341 201 -1728
2022-08-06 09:41:56 GMT 46.019402 5.852623 6,275 300 203 -2048
2022-08-06 09:41:51 GMT 46.016048 5.856537 6,500 316 202 -2048
2022-08-06 09:41:44 GMT 46.010925 5.867570 6,775 295 204 -2048
2022-08-06 09:41:41 GMT 46.010925 5.867570 6,825 293 204 -1920
2022-08-06 09:41:34 GMT 46.009068 5.876038 7,000 286 208 -1216
2022-08-06 09:41:31 GMT 46.008270 5.880432 7,050 285 210 -1024
2022-08-06 09:41:28 GMT 46.007263 5.885925 7,150 285 218 -1216
2022-08-06 09:41:22 GMT 46.006039 5.892723 7,225 285 220 -960
2022-08-06 09:41:18 GMT 46.004971 5.898697 7,300 285 228 -768
2022-08-06 09:41:14 GMT 46.003830 5.905017 7,350 285 228 -768
2022-08-06 09:41:11 GMT 46.003155 5.908653 7,400 285 231 -768
2022-08-06 09:41:08 GMT 46.002136 5.914128 7,625 285 247 -1024
2022-08-06 09:41:01 GMT 46.000130 5.924995 7,525 286 241 -896
2022-08-06 09:40:55 GMT 45.998383 5.934225 7,575 285 244 -1024
2022-08-06 09:40:52 GMT 45.997616 5.938385 7,700 285 247 -1024
2022-08-06 09:40:48 GMT 45.996220 5.945869 7,800 285 254 -960
2022-08-06 09:40:41 GMT 45.994263 5.956801 7,850 285 253 -960
2022-08-06 09:40:38 GMT 45.993439 5.961155 8,150 285 261 -704
2022-08-06 09:40:31 GMT 45.991287 5.972945 8,000 285 261 -704
2022-08-06 09:40:27 GMT 45.990074 5.979584 8,150 286 271 -640
2022-08-06 09:40:22 GMT 45.988445 5.988304 8,100 286 270 -640
2022-08-06 09:40:17 GMT 45.986813 5.996956 8,150 286 274 -704
2022-08-06 09:40:13 GMT 45.985153 6.005703 8,200 286 277 -960
2022-08-06 09:40:10 GMT 45.984116 6.011169 8,275 286 281 -1216
2022-08-06 09:40:07 GMT 45.983322 6.015417 8,325 286 284 -1152
2022-08-06 09:40:03 GMT 45.982159 6.021606 8,400 286 284 -1152
2022-08-06 09:40:00 GMT 45.981079 6.027341 8,525 286 285 -1280
2022-08-06 09:39:53 GMT 45.978653 6.039935 8,550 286 285 -1600
2022-08-06 09:39:50 GMT 45.977737 6.044815 8,725 286 286 -1920
2022-08-06 09:39:46 GMT 45.976318 6.052194 8,850 286 287 -2048
2022-08-06 09:39:42 GMT 45.973343 6.068004 9,075 286 287 -2304
2022-08-06 09:39:38 GMT 45.973343 6.068004 9,150 286 287 -2368
2022-08-06 09:39:30 GMT 45.970734 6.081803 9,575 286 286 -2304
2022-08-06 09:39:25 GMT 45.969170 6.089928 9,625 286 288 -1728
2022-08-06 09:39:22 GMT 45.966751 6.102356 9,725 286 291 -1536
2022-08-06 09:39:19 GMT 45.966751 6.102356 9,825 286 293 -1408
2022-08-06 09:39:16 GMT 45.965401 6.109428 9,875 286 296 -1216
2022-08-06 09:39:11 GMT 45.963772 6.117668 9,975 286 300 -1152
2022-08-06 09:39:08 GMT 45.962513 6.124191 10,025 286 307 -1216
2022-08-06 09:39:05 GMT 45.961632 6.128723 10,100 286 310 -1408
2022-08-06 09:39:01 GMT 45.960114 6.136735 10,175 286 311 -1536
2022-08-06 09:38:58 GMT 45.958923 6.142898 10,275 286 312 -1536
2022-08-06 09:38:54 GMT 45.957642 6.149798 10,375 285 317 -1728
2022-08-06 09:38:51 GMT 45.956230 6.157425 10,825 285 322 -2112
2022-08-06 09:38:48 GMT 45.955261 6.162660 10,825 285 322 -2112
2022-08-06 09:38:44 GMT 45.953762 6.171089 10,725 285 324 -2432
2022-08-06 09:38:39 GMT 45.951874 6.182087 10,975 284 326 -2688
2022-08-06 09:38:35 GMT 45.949951 6.193208 11,225 284 327 -2496
2022-08-06 09:38:30 GMT 45.948921 6.199722 11,725 283 332 -2688
2022-08-06 09:38:25 GMT 45.946732 6.213181 11,550 283 332 -2560
2022-08-06 09:38:21 GMT 45.945282 6.222482 11,750 283 332 -2688
2022-08-06 09:38:17 GMT 45.944035 6.230278 11,925 288 329 -3392
2022-08-06 09:38:14 GMT 45.943150 6.235634 12,675 324 327 0
2022-08-06 09:38:08 GMT 45.940796 6.247134 12,350 293 328 -3712
2022-08-06 09:38:03 GMT 45.937702 6.256920 12,675 324 327 0
2022-08-06 09:37:58 GMT 45.930908 6.271050 13,150 309 325 -3456
2022-08-06 09:37:52 GMT 45.924316 6.280160 13,350 324 327 0
2022-08-06 09:37:49 GMT 45.924316 6.280160 13,625 323 322 -3072
2022-08-06 09:37:46 GMT 45.921204 6.283778 13,625 323 322 -3072
2022-08-06 09:37:43 GMT 45.917080 6.288162 13,775 324 321 -2048
2022-08-06 09:37:39 GMT 45.912376 6.293037 13,925 324 322 -1216
2022-08-06 09:37:36 GMT 45.908615 6.297042 13,950 324 327 -64
2022-08-06 09:37:33 GMT 45.903122 6.302736 13,975 324 325 -192
2022-08-06 09:37:28 GMT 45.898552 6.307594 13,975 324 331 64
2022-08-06 09:37:25 GMT 45.895294 6.310959 13,975 325 333 0
2022-08-06 09:37:22 GMT 45.890778 6.315628 14,000 325 335 -128
2022-08-06 09:37:18 GMT 45.885841 6.320778 14,050 325 342 -576
2022-08-06 09:37:15 GMT 45.882397 6.324348 14,050 324 343 -640
2022-08-06 09:37:12 GMT 45.877670 6.329264 14,100 324 345 -768
2022-08-06 09:37:10 GMT 45.874695 6.332412 14,150 324 347 -1152
2022-08-06 09:37:07 GMT 45.871582 6.335628 14,200 324 348 -1280
2022-08-06 09:37:02 GMT 45.865448 6.342059 14,300 324 349 -1536
2022-08-06 09:36:59 GMT 45.861511 6.346212 14,400 324 351 -1920
2022-08-06 09:36:56 GMT 45.857071 6.350902 14,525 324 351 -2176
2022-08-06 09:36:53 GMT 45.854000 6.354149 14,700 324 351 -2112
2022-08-06 09:36:49 GMT 45.844177 6.364449 14,875 324 351 -2176
2022-08-06 09:36:42 GMT 45.839127 6.369726 15,025 324 351 -2368
2022-08-06 09:36:39 GMT 45.835148 6.373924 15,150 324 351 -2304
2022-08-06 09:36:36 GMT 45.831802 6.377429 15,250 324 351 -2048
2022-08-06 09:36:32 GMT 45.825668 6.383928 15,350 324 352 -1664
2022-08-06 09:36:27 GMT 45.813965 6.396172 15,575 324 355 -1664
2022-08-06 09:36:23 GMT 45.813965 6.396172 15,625 324 355 -1792
2022-08-06 09:36:16 GMT 45.804840 6.405632 15,850 324 356 -2112
2022-08-06 09:36:13 GMT 45.800308 6.410388 15,950 324 356 -2112
2022-08-06 09:36:10 GMT 45.797066 6.413818 16,050 324 356 -2112
2022-08-06 09:36:07 GMT 45.792412 6.418625 16,275 324 356 -2368
2022-08-06 09:36:02 GMT 45.784966 6.426453 16,350 324 355 -2560
2022-08-06 09:35:58 GMT 45.775654 6.436134 16,675 324 355 -2432
2022-08-06 09:35:55 GMT 45.775654 6.436134 16,700 324 355 -2432
2022-08-06 09:35:49 GMT 45.767834 6.444305 16,900 324 355 -1920
2022-08-06 09:35:44 GMT 45.762527 6.449867 17,100 324 357 -1344
2022-08-06 09:35:40 GMT 45.757095 6.455473 17,100 324 358 -1600
2022-08-06 09:35:37 GMT 45.753113 6.459693 17,275 324 357 -2880
2022-08-06 09:35:34 GMT 45.749027 6.463943 17,275 324 357 -2880
2022-08-06 09:35:28 GMT 45.740738 6.472527 17,625 324 356 -2560
2022-08-06 09:35:24 GMT 45.735352 6.478182 17,750 325 355 -1728
2022-08-06 09:35:20 GMT 45.731461 6.482202 17,825 324 356 -1344
2022-08-06 09:35:17 GMT 45.727005 6.486809 17,900 324 357 -1024
2022-08-06 09:35:14 GMT 45.722164 6.491821 17,950 324 357 -1088
2022-08-06 09:35:11 GMT 45.717453 6.496738 18,000 324 358 -1088
2022-08-06 09:35:08 GMT 45.714020 6.500267 18,050 324 358 -1088
2022-08-06 09:35:02 GMT 45.705917 6.508663 18,150 324 358 -832
2022-08-06 09:34:57 GMT 45.700012 6.514826 18,225 325 358 -576
2022-08-06 09:34:54 GMT 45.695118 6.519836 18,250 325 358 -576
2022-08-06 09:34:50 GMT 45.689857 6.525261 18,300 325 358 -576
2022-08-06 09:34:47 GMT 45.686550 6.528694 18,325 325 356 -576
2022-08-06 09:34:43 GMT 45.680363 6.535080 18,375 325 356 -576
2022-08-06 09:34:40 GMT 45.676437 6.539143 18,400 325 356 -576
2022-08-06 09:34:37 GMT 45.671997 6.543698 18,500 325 356 -512
2022-08-06 09:34:33 GMT 45.668213 6.547577 18,500 325 357 -576
2022-08-06 09:34:30 GMT 45.662205 6.553825 18,500 325 357 -640
2022-08-06 09:34:27 GMT 45.654385 6.561790 18,525 325 358 -832
2022-08-06 09:34:24 GMT 45.654385 6.561790 18,575 325 358 -1024
2022-08-06 09:34:21 GMT 45.651451 6.564880 18,625 325 358 -960
2022-08-06 09:34:17 GMT 45.645859 6.570628 18,675 325 360 -960
2022-08-06 09:34:13 GMT 45.641006 6.575652 18,750 325 360 -1024
2022-08-06 09:34:09 GMT 45.635330 6.581480 18,800 324 361 -1024
2022-08-06 09:34:06 GMT 45.630692 6.586304 19,000 324 362 -1024
2022-08-06 09:34:03 GMT 45.627365 6.589787 18,925 324 362 -1024
2022-08-06 09:33:53 GMT 45.613815 6.603922 19,075 324 364 -960
2022-08-06 09:33:49 GMT 45.607590 6.610487 19,150 324 365 -960
2022-08-06 09:33:46 GMT 45.603561 6.614841 19,200 322 366 -960
2022-08-06 09:33:43 GMT 45.599625 6.618995 19,250 324 365 -960
2022-08-06 09:33:40 GMT 45.595596 6.623349 19,300 323 365 -960
2022-08-06 09:33:37 GMT 45.591019 6.628306 19,350 323 365 -960
2022-08-06 09:33:32 GMT 45.586029 6.633732 19,425 323 366 -960
2022-08-06 09:33:26 GMT 45.576691 6.644116 19,525 322 366 -960
2022-08-06 09:33:22 GMT 45.572594 6.648651 19,575 323 367 -960
2022-08-06 09:33:18 GMT 45.566402 6.655518 19,650 324 368 -896
2022-08-06 09:33:15 GMT 45.562271 6.659992 19,700 324 368 -960
2022-08-06 09:33:12 GMT 45.558907 6.663414 19,725 326 368 -960
2022-08-06 09:33:09 GMT 45.554077 6.667897 19,775 332 369 -1024
2022-08-06 09:33:06 GMT 45.549412 6.671585 19,850 338 369 -1088
2022-08-06 09:33:01 GMT 45.538143 6.678013 19,950 343 369 -832
2022-08-06 09:32:56 GMT 45.532230 6.680290 20,000 348 369 -256
2022-08-06 09:32:52 GMT 45.524963 6.682369 20,000 351 368 -64
2022-08-06 09:32:49 GMT 45.521664 6.683171 20,000 351 367 0
2022-08-06 09:32:46 GMT 45.516220 6.684396 20,000 351 367 -64
2022-08-06 09:32:41 GMT 45.507339 6.686423 20,000 351 366 0
2022-08-06 09:32:35 GMT 45.499039 6.688329 20,000 351 365 0
2022-08-06 09:32:31 GMT 45.491455 6.690085 20,000 351 366 0
2022-08-06 09:32:25 GMT 45.481934 6.692243 20,000 351 366 -64
2022-08-06 09:32:21 GMT 45.474380 6.693944 20,000 351 367 0
2022-08-06 09:32:16 GMT 45.464676 6.696167 20,000 351 367 -64
2022-08-06 09:32:10 GMT 45.456539 6.698043 20,025 351 367 -64
2022-08-06 09:32:06 GMT 45.449833 6.699583 20,025 351 367 -64
2022-08-06 09:31:59 GMT 45.436661 6.702576 20,025 351 367 0
2022-08-06 09:31:56 GMT 45.433456 6.703295 20,025 351 367 64
2022-08-06 09:31:50 GMT 45.422649 6.705747 20,000 351 367 0
2022-08-06 09:31:43 GMT 45.411568 6.708292 20,000 351 367 0
2022-08-06 09:31:40 GMT 45.405704 6.709632 20,000 351 367 64
2022-08-06 09:31:34 GMT 45.396626 6.711776 20,000 351 368 64
2022-08-06 09:31:27 GMT 45.383102 6.714805 20,000 351 368 64
2022-08-06 09:31:24 GMT 45.379635 6.715594 19,975 351 369 64
2022-08-06 09:31:19 GMT 45.368507 6.718140 19,975 351 369 0
2022-08-06 09:31:14 GMT 45.361862 6.719644 19,975 351 369 0
2022-08-06 09:31:09 GMT 45.350555 6.722194 20,000 351 369 0
2022-08-06 09:31:04 GMT 45.344971 6.723437 20,000 351 368 0
2022-08-06 09:31:00 GMT 45.339111 6.724745 20,000 351 368 -64
2022-08-06 09:30:57 GMT 45.333965 6.725910 20,000 352 367 0
2022-08-06 09:30:52 GMT 45.324646 6.728014 20,000 352 367 0
2022-08-06 09:30:48 GMT 45.319347 6.729193 20,000 352 367 64
2022-08-06 09:30:45 GMT 45.311993 6.730801 20,000 352 366 -64
2022-08-06 09:30:42 GMT 45.309479 6.731337 20,000 352 366 -128
2022-08-06 09:30:38 GMT 45.300076 6.733413 20,050 352 367 -512
2022-08-06 09:30:32 GMT 45.292786 6.735012 20,075 352 368 -768
2022-08-06 09:30:29 GMT 45.286194 6.736516 20,150 352 368 -896
2022-08-06 09:30:26 GMT 45.280708 6.737701 20,175 352 368 -960
2022-08-06 09:30:23 GMT 45.276627 6.738608 20,225 352 369 -960
2022-08-06 09:30:19 GMT 45.270172 6.740047 20,300 352 369 -1024
2022-08-06 09:30:16 GMT 45.264511 6.741318 20,350 351 371 -1024
2022-08-06 09:30:12 GMT 45.257675 6.742859 20,425 352 371 -1024
2022-08-06 09:30:09 GMT 45.253281 6.743840 20,450 351 371 -1024
2022-08-06 09:30:06 GMT 45.246964 6.745278 20,525 351 374 -1024
2022-08-06 09:29:59 GMT 45.236252 6.747698 20,625 351 372 -1088
2022-08-06 09:29:55 GMT 45.224670 6.750445 20,750 351 374 -1024
2022-08-06 09:29:49 GMT 45.218796 6.751769 20,800 351 374 -1024
2022-08-06 09:29:41 GMT 45.205078 6.755088 20,950 351 374 -960
2022-08-06 09:29:38 GMT 45.201057 6.756056 21,000 351 374 -960
2022-08-06 09:29:31 GMT 45.183697 6.760343 21,125 350 373 -960
2022-08-06 09:29:28 GMT 45.183697 6.760343 21,150 350 373 -960
2022-08-06 09:29:25 GMT 45.176201 6.762219 21,225 350 372 -896
2022-08-06 09:29:21 GMT 45.170612 6.763626 21,275 351 372 -960
2022-08-06 09:29:16 GMT 45.163490 6.765300 21,350 351 373 -960
2022-08-06 09:29:13 GMT 45.157242 6.766793 21,400 353 373 -1024
2022-08-06 09:29:08 GMT 45.148968 6.768382 21,475 355 374 -1024
2022-08-06 09:29:05 GMT 45.140865 6.769387 21,550 357 373 -960
2022-08-06 09:29:02 GMT 45.139145 6.769588 21,575 357 373 -960
2022-08-06 09:28:58 GMT 45.132156 6.770194 21,675 357 373 -960
2022-08-06 09:28:54 GMT 45.124054 6.770848 21,725 357 373 -960
2022-08-06 09:28:51 GMT 45.118614 6.771263 21,775 357 373 -960
2022-08-06 09:28:48 GMT 45.114983 6.771598 21,825 357 373 -960
2022-08-06 09:28:45 GMT 45.108234 6.772133 21,875 357 373 -1024
2022-08-06 09:28:40 GMT 45.099995 6.772803 21,950 357 373 -1024
2022-08-06 09:28:35 GMT 45.089218 6.773725 22,050 357 373 -1024
2022-08-06 09:28:29 GMT 45.081802 6.774314 22,125 357 373 -1088
2022-08-06 09:28:24 GMT 45.071960 6.775099 22,225 357 373 -1024
2022-08-06 09:28:20 GMT 45.066010 6.775617 22,300 357 372 -1024
2022-08-06 09:28:17 GMT 45.060516 6.776019 22,350 357 372 -960
2022-08-06 09:28:14 GMT 45.054653 6.776488 22,400 357 372 -1024
2022-08-06 09:28:09 GMT 45.047379 6.777060 22,475 357 371 -960
2022-08-06 09:28:04 GMT 45.036072 6.777911 22,575 357 370 -1024
2022-08-06 09:28:00 GMT 45.031517 6.778230 22,625 358 369 -1024
2022-08-06 09:27:54 GMT 45.018063 6.779234 22,750 357 368 -960
2022-08-06 09:27:50 GMT 45.014740 6.779480 22,775 357 368 -960
2022-08-06 09:27:45 GMT 45.006332 6.780172 22,875 357 367 -960
2022-08-06 09:27:39 GMT 44.996429 6.780919 22,975 357 366 -960
2022-08-06 09:27:35 GMT 44.983662 6.781981 23,100 357 365 -960
2022-08-06 09:27:32 GMT 44.983662 6.781981 23,100 357 365 -960
2022-08-06 09:27:29 GMT 44.979538 6.782357 23,125 357 365 -960
2022-08-06 09:27:23 GMT 44.970161 6.783120 23,225 357 365 -960
2022-08-06 09:27:20 GMT 44.962463 6.783731 23,300 357 365 -896
2022-08-06 09:27:13 GMT 44.953449 6.784460 23,450 357 366 -960
2022-08-06 09:27:08 GMT 44.939484 6.785562 23,475 358 371 -64
2022-08-06 09:27:05 GMT 44.939484 6.785562 23,500 357 367 -1024
2022-08-06 09:27:01 GMT 44.932709 6.786085 23,800 357 368 -960
2022-08-06 09:26:54 GMT 44.920723 6.787072 23,675 357 369 -960
2022-08-06 09:26:51 GMT 44.914673 6.787589 23,725 357 369 -1024
2022-08-06 09:26:45 GMT 44.904987 6.788412 23,825 357 371 -1024
2022-08-06 09:26:40 GMT 44.895996 6.789158 23,900 357 371 -960
2022-08-06 09:26:31 GMT 44.880203 6.790466 24,000 357 372 -192
2022-08-06 09:26:24 GMT 44.869354 6.791316 24,000 357 371 0
2022-08-06 09:26:20 GMT 44.861298 6.791905 24,000 357 371 0
2022-08-06 09:26:13 GMT 44.850567 6.792766 24,000 357 371 0
2022-08-06 09:26:10 GMT 44.844315 6.793213 24,000 358 371 -64
2022-08-06 09:25:59 GMT 44.826035 6.794508 24,000 358 371 64
2022-08-06 09:25:53 GMT 44.815372 6.795312 24,000 358 371 64
2022-08-06 09:25:46 GMT 44.804489 6.796025 24,000 358 371 0
2022-08-06 09:25:43 GMT 44.798309 6.796417 24,000 358 371 0
2022-08-06 09:25:38 GMT 44.790253 6.797006 24,000 358 371 64
2022-08-06 09:25:27 GMT 44.771290 6.798192 24,000 358 371 -64
2022-08-06 09:25:15 GMT 44.750610 6.799622 24,000 358 372 0
2022-08-06 09:25:07 GMT 44.736935 6.800671 24,000 357 372 0
2022-08-06 09:24:55 GMT 44.716312 6.802815 24,000 356 373 0
2022-08-06 09:24:51 GMT 44.708397 6.803820 24,000 355 373 0
2022-08-06 09:24:45 GMT 44.697876 6.805293 24,000 354 372 0
2022-08-06 09:24:41 GMT 44.692657 6.806096 24,000 354 374 0
2022-08-06 09:24:34 GMT 44.679211 6.808174 24,000 354 372 64
2022-08-06 09:24:29 GMT 44.668919 6.809715 24,000 354 371 64
2022-08-06 09:24:25 GMT 44.664310 6.810452 24,000 354 371 64
2022-08-06 09:24:21 GMT 44.658096 6.811393 24,000 354 372 -64
2022-08-06 09:24:18 GMT 44.650085 6.812635 24,000 354 372 -64
2022-08-06 09:24:12 GMT 44.642715 6.813747 24,000 354 372 -64
2022-08-06 09:24:05 GMT 44.625210 6.816481 24,000 354 372 -64
2022-08-06 09:24:02 GMT 44.625210 6.816481 24,000 354 371 -64
2022-08-06 09:23:52 GMT 44.607742 6.819175 24,000 354 370 64
2022-08-06 09:23:41 GMT 44.590164 6.821856 24,000 354 371 64
2022-08-06 09:23:31 GMT 44.572266 6.824537 24,000 354 372 0
2022-08-06 09:23:24 GMT 44.560135 6.826368 24,000 354 372 0
2022-08-06 09:23:21 GMT 44.555939 6.826998 24,000 354 372 64
2022-08-06 09:23:16 GMT 44.546394 6.828405 24,000 354 372 0
2022-08-06 09:23:11 GMT 44.537830 6.829678 24,000 354 372 -64
2022-08-06 09:23:06 GMT 44.529190 6.831011 24,000 354 372 -64
2022-08-06 09:23:00 GMT 44.519073 6.832581 24,000 354 372 -64
2022-08-06 09:22:49 GMT 44.498306 6.835707 24,000 354 372 0
2022-08-06 09:22:46 GMT 44.495316 6.836177 24,000 354 372 64
2022-08-06 09:22:38 GMT 44.481949 6.838205 24,000 354 372 0
2022-08-06 09:22:28 GMT 44.464325 6.840886 24,000 354 372 0
2022-08-06 09:22:13 GMT 44.439651 6.844679 24,000 354 372 0
2022-08-06 09:22:07 GMT 44.428848 6.846313 24,000 354 373 64
2022-08-06 09:21:56 GMT 44.409988 6.849125 24,000 354 374 0
2022-08-06 09:21:46 GMT 44.392914 6.851610 24,000 354 375 0
2022-08-06 09:21:30 GMT 44.351341 6.857880 24,000 343 361 2432
2022-08-06 09:21:22 GMT 44.351341 6.857880 24,000 354 375 0
2022-08-06 09:21:11 GMT 44.333130 6.860570 24,000 354 374 0
2022-08-06 09:21:01 GMT 44.315029 6.863374 24,000 354 373 -64
2022-08-06 09:20:54 GMT 44.303673 6.865115 24,025 355 367 1536
2022-08-06 09:20:50 GMT 44.297016 6.866120 24,000 354 372 0
2022-08-06 09:20:39 GMT 44.277924 6.869071 24,000 354 372 128
2022-08-06 09:20:28 GMT 44.258236 6.872149 23,950 354 371 320
2022-08-06 09:20:19 GMT 44.243179 6.874433 23,825 354 369 1280
2022-08-06 09:20:09 GMT 44.225838 6.876972 23,550 355 364 1792
2022-08-06 09:19:59 GMT 44.209263 6.879250 23,200 355 362 2240
2022-08-06 09:19:48 GMT 44.190830 6.881823 22,725 355 364 2752
2022-08-06 09:19:38 GMT 44.174210 6.884112 22,300 355 365 2432
2022-08-06 09:19:24 GMT 44.150421 6.888101 21,775 352 364 2240
2022-08-06 09:19:17 GMT 44.139359 6.891494 21,500 345 362 2368
2022-08-06 09:19:06 GMT 44.122696 6.898520 21,075 343 360 2240
2022-08-06 09:18:55 GMT 44.104755 6.906607 20,700 343 357 1920
2022-08-06 09:18:45 GMT 44.089600 6.913402 20,325 343 354 2816
2022-08-06 09:18:35 GMT 44.073349 6.920684 19,550 343 356 3328
2022-08-06 09:18:31 GMT 44.066860 6.923610 19,550 343 356 3328
2022-08-06 09:18:24 GMT 44.055862 6.928477 19,175 343 360 3520
2022-08-06 09:18:14 GMT 44.039795 6.935694 18,575 343 363 3648
2022-08-06 09:18:03 GMT 44.022903 6.943296 17,925 343 369 3520
2022-08-06 09:17:53 GMT 44.006531 6.950618 17,375 342 371 2944
2022-08-06 09:17:43 GMT 43.990047 6.958073 14,775 343 372 2880
2022-08-06 09:17:35 GMT 43.974686 6.965005 16,425 343 372 2816
2022-08-06 09:17:32 GMT 43.972221 6.966117 14,775 343 372 2816
2022-08-06 09:17:22 GMT 43.955555 6.973572 14,775 342 361 2880
2022-08-06 09:17:17 GMT 43.947006 6.977468 15,700 343 369 2368
2022-08-06 09:17:11 GMT 43.937439 6.981748 15,450 342 367 2368
2022-08-06 09:17:05 GMT 43.925674 6.987049 15,175 342 364 2432
2022-08-06 09:17:00 GMT 43.919197 6.989986 15,000 342 363 2752
2022-08-06 09:16:56 GMT 43.913818 6.992415 14,850 342 363 2752
2022-08-06 09:16:48 GMT 43.900269 6.998547 14,325 342 361 2880
2022-08-06 09:16:44 GMT 43.893768 7.001485 14,225 342 361 3136
2022-08-06 09:16:40 GMT 43.887447 7.004307 14,025 342 361 3328
2022-08-06 09:16:36 GMT 43.881180 7.007106 13,800 342 361 3264
2022-08-06 09:16:33 GMT 43.876373 7.009277 13,250 343 362 3072
2022-08-06 09:16:26 GMT 43.864288 7.014707 13,250 342 361 3136
2022-08-06 09:16:23 GMT 43.860764 7.016303 13,125 342 361 3136
2022-08-06 09:16:14 GMT 43.844994 7.023403 12,150 342 360 2880
2022-08-06 09:16:05 GMT 43.832470 7.029027 12,250 342 358 3072
2022-08-06 09:16:02 GMT 43.827850 7.031186 12,100 342 357 3072
2022-08-06 09:16:00 GMT 43.824604 7.032623 12,000 342 357 3072
2022-08-06 09:15:55 GMT 43.817200 7.035958 11,750 342 357 2880
2022-08-06 09:15:50 GMT 43.805237 7.041406 11,450 342 354 2432
2022-08-06 09:15:44 GMT 43.799332 7.044153 11,300 342 351 2112
2022-08-06 09:15:41 GMT 43.794018 7.046552 11,200 342 337 0
2022-08-06 09:15:33 GMT 43.781868 7.052111 11,000 342 340 1280
2022-08-06 09:15:26 GMT 43.771454 7.056927 10,850 342 328 1216
2022-08-06 09:15:23 GMT 43.767204 7.058847 10,800 342 326 1216
2022-08-06 09:15:20 GMT 43.763897 7.060351 10,750 342 324 1216
2022-08-06 09:15:13 GMT 43.753326 7.065295 10,575 342 313 1216
2022-08-06 09:15:11 GMT 43.750492 7.066563 10,550 342 310 1280
2022-08-06 09:15:03 GMT 43.739738 7.071599 10,325 342 300 1856
2022-08-06 09:15:01 GMT 43.736526 7.073087 10,250 342 297 2176
2022-08-06 09:14:53 GMT 43.726318 7.077942 9,900 341 294 2880
2022-08-06 09:14:50 GMT 43.713623 7.083958 9,550 341 287 3008
2022-08-06 09:14:43 GMT 43.713623 7.083958 9,425 341 289 2880
2022-08-06 09:14:40 GMT 43.710663 7.085415 3,950 341 287 3008
2022-08-06 09:14:33 GMT 43.700958 7.090014 8,925 341 285 2816
2022-08-06 09:14:30 GMT 43.697845 7.091483 8,825 341 283 2624
2022-08-06 09:14:22 GMT 43.688370 7.095954 8,525 342 278 1920
2022-08-06 09:14:20 GMT 43.685074 7.097487 8,450 342 275 1664
2022-08-06 09:14:12 GMT 43.676285 7.101448 8,250 343 265 1664
2022-08-06 09:14:10 GMT 43.673218 7.102789 3,950 335 248 2944
2022-08-06 09:14:02 GMT 43.664978 7.106110 7,950 345 253 2048
2022-08-06 09:13:59 GMT 43.660629 7.107771 7,775 345 249 2560
2022-08-06 09:13:52 GMT 43.653988 7.110247 7,475 345 247 3392
2022-08-06 09:13:47 GMT 43.642868 7.115947 3,950 335 248 2944
2022-08-06 09:13:42 GMT 43.642868 7.115947 6,925 331 248 2880
2022-08-06 09:13:39 GMT 43.639603 7.118944 3,950 271 225 640
2022-08-06 09:13:31 GMT 43.634033 7.126806 6,400 305 247 3008
2022-08-06 09:13:29 GMT 43.632111 7.130846 6,250 296 247 3008
2022-08-06 09:13:22 GMT 43.629360 7.139936 5,950 287 247 2944
2022-08-06 09:13:19 GMT 43.628036 7.146990 5,700 283 245 3136
2022-08-06 09:13:12 GMT 43.626709 7.155102 5,450 283 243 3264
2022-08-06 09:13:07 GMT 43.625381 7.163278 5,125 283 243 3968
2022-08-06 09:13:02 GMT 43.624195 7.171064 4,800 283 244 3840
2022-08-06 09:12:52 GMT 43.621868 7.186170 4,250 282 244 3008
2022-08-06 09:12:42 GMT 43.619774 7.200950 3,975 277 232 384
2022-08-06 09:12:32 GMT 43.619774 7.215794 3,850 258 217 1024
2022-08-06 09:12:22 GMT 43.623230 7.227918 3,675 236 205 1152
2022-08-06 09:12:17 GMT 43.626343 7.233475 3,125 227 178 1920
2022-08-06 09:12:11 GMT 43.629829 7.238421 3,475 226 193 1088
2022-08-06 09:12:08 GMT 43.632061 7.241560 3,400 227 185 1088
2022-08-06 09:12:02 GMT 43.635590 7.246697 3,275 227 183 1152
2022-08-06 09:11:56 GMT 43.639137 7.251827 3,125 227 178 1920
2022-08-06 09:11:52 GMT 43.641232 7.254769 3,000 226 178 2048
2022-08-06 09:11:47 GMT 43.643875 7.258514 2,850 223 177 2240
2022-08-06 09:11:42 GMT 43.647377 7.262878 2,625 218 178 2304
2022-08-06 09:11:36 GMT 43.651245 7.266242 2,425 200 176 2176
2022-08-06 09:11:17 GMT 43.665581 7.265821 2,050 156 170 1920
2022-08-06 09:11:08 GMT 43.670795 7.259412 1,500 141 168 1856
2022-08-06 09:11:05 GMT 43.671864 7.256862 1,425 117 163 1536
2022-08-06 09:10:55 GMT 43.673401 7.245867 1,025 85 161 2304
2022-08-06 09:10:43 GMT 43.669922 7.235200 625 47 164 1856
2022-08-06 09:10:36 GMT 43.666325 7.229854 400 47 159 1728
2022-08-06 09:10:24 GMT 43.660275 7.221091 25 45 158 64
2022-08-06 09:10:15 GMT 43.655663 7.214748 0 45 137 0
2022-08-06 09:10:05 GMT 43.651657 7.209267 0 44 105 0
2022-08-06 09:09:54 GMT 43.648285 7.204628 0 45 51
2022-08-06 09:09:44 GMT 43.647285 7.203247 0 45 15
2022-08-06 09:09:34 GMT 43.647030 7.202911 0 47 5
2022-08-06 09:08:49 GMT 43.647610 7.201849 0 185 6
2022-08-06 09:08:44 GMT 43.647762 7.201865 0 202 7
2022-08-06 09:08:22 GMT 43.648430 7.202592 0 225 17
2022-08-06 09:08:12 GMT 43.649078 7.203484 0 225 19
2022-08-06 09:08:01 GMT 43.649685 7.204301 0 225 17
2022-08-06 09:07:45 GMT 43.650661 7.205151 0 180 15
2022-08-06 09:07:39 GMT 43.651062 7.205083 0 157 15
2022-08-06 09:07:34 GMT 43.651382 7.204860 0 143 15
2022-08-06 09:07:21 GMT 43.651989 7.204077 0 135 15
2022-08-06 09:06:59 GMT 43.653065 7.202943 0 188 11
2022-08-06 09:06:51 GMT 43.653442 7.203103 0 219 11
2022-08-06 09:06:41 GMT 43.653851 7.203647 0 225 14
2022-08-06 09:06:30 GMT 43.654373 7.204366 0 225 16
2022-08-06 09:06:19 GMT 43.654919 7.205115 0 225 14
2022-08-06 09:06:12 GMT 43.655239 7.205562 0 225 13
2022-08-06 09:06:00 GMT 43.655708 7.206217 0 222 11
2022-08-06 09:05:51 GMT 43.656063 7.206568 0 185 11
2022-08-06 09:05:41 GMT 43.656513 7.206426 0 135 12
2022-08-06 09:05:31 GMT 43.656853 7.205882 0 101 12
2022-08-06 09:05:16 GMT 43.656570 7.204939 0 45 11
2022-08-06 09:05:10 GMT 43.656384 7.204684 0 45 11
2022-08-06 09:05:00 GMT 43.656063 7.204237 0 45 10
2022-08-06 09:04:50 GMT 43.655743 7.203806 0 45 9
2022-08-06 09:03:35 GMT 43.655457 7.203390 0 47 0
2022-08-06 09:03:20 GMT 43.655457 7.203402 0 47 0
2022-08-06 09:03:15 GMT 43.655445 7.203406 0 47 0
2022-08-06 09:02:34 GMT 43.655457 7.203385 0 47 0
2022-08-06 09:02:25 GMT 43.655445 7.203390 0 47 0
2022-08-06 09:01:57 GMT 43.655457 7.203385 0 47 0
2022-08-06 09:01:46 GMT 43.655457 7.203374 0 47 0
2022-08-06 09:01:37 GMT 43.655457 7.203385 0 47 0
2022-08-06 09:01:27 GMT 43.655525 7.203435 0 36 3
2022-08-06 09:01:17 GMT 43.655651 7.203390 0 0 4
We lost coverage of the aircraft here for a total of 113 minutes
2022-08-06 07:08:32 GMT 43.656082 7.202846 0 315 0 0
2022-08-06 07:08:25 GMT 43.656075 7.202832 0 315 2 0
2022-08-06 07:08:14 GMT 43.655968 7.202993 0 315 5 0
2022-08-06 07:08:05 GMT 43.655781 7.203238 0 315 7 0
2022-08-06 07:07:54 GMT 43.655605 7.203533 0 241 6 0
2022-08-06 07:07:44 GMT 43.655910 7.204023 0 225 15 0
2022-08-06 07:07:34 GMT 43.656384 7.204684 0 225 14 0
2022-08-06 07:07:21 GMT 43.656876 7.205498 0 270 13 0
2022-08-06 07:07:13 GMT 43.656761 7.206089 0 312 13 0
2022-08-06 07:07:03 GMT 43.656406 7.206776 0 270 13 0
2022-08-06 07:06:53 GMT 43.656578 7.207399 0 225 14 0
2022-08-06 07:06:35 GMT 43.657597 7.208813 0 225 18 0
2022-08-06 07:06:31 GMT 43.657837 7.209139 0 225 18 0
2022-08-06 07:06:22 GMT 43.658318 7.209811 0 225 16 0
2022-08-06 07:06:12 GMT 43.658783 7.210448 0 225 13 0
2022-08-06 07:06:00 GMT 43.659294 7.210988 0 177 12 0
2022-08-06 07:05:52 GMT 43.659775 7.210775 0 154 16 0
2022-08-06 07:04:10 GMT 43.664577 7.215990 0 225 8 0
2022-08-06 07:04:00 GMT 43.664898 7.216437 0 225 14 0
2022-08-06 07:03:50 GMT 43.665310 7.216996 0 225 13 0
2022-08-06 07:03:39 GMT 43.665745 7.217593 0 225 11 0
2022-08-06 07:03:29 GMT 43.666069 7.218034 0 225 10 0
2022-08-06 07:03:20 GMT 43.666374 7.218481 0 247 11 0
2022-08-06 07:03:08 GMT 43.666348 7.219162 0 315 11 0
2022-08-06 07:02:55 GMT 43.665871 7.219767 0 329 9 0
2022-08-06 07:02:49 GMT 43.665710 7.219902 0 317 6 0
2022-08-06 07:02:40 GMT 43.665539 7.220253 0 306 11 0
2022-08-06 07:02:29 GMT 43.665150 7.220589 0 8 12 0
2022-08-06 07:02:18 GMT 43.664463 7.220290 0 19 18 0
2022-08-06 07:02:07 GMT 43.663479 7.219694 0 30 25 0
2022-08-06 07:01:45 GMT 43.660320 7.215729 -50 45 80 0
2022-08-06 07:01:31 GMT 43.655869 7.209586 -50 45 101 -64
2022-08-06 07:01:29 GMT 43.654312 7.207478 -25 45 130 -192
2022-08-06 07:01:18 GMT 43.650192 7.201857 100 45 130 -704
2022-08-06 07:01:08 GMT 43.646027 7.195980 225 44 130 -704
2022-08-06 07:00:58 GMT 43.641586 7.189977 350 44 130 -832
2022-08-06 07:00:47 GMT 43.637138 7.183947 475 45 128 -576
2022-08-06 07:00:33 GMT 43.631287 7.175925 625 45 128 -640
2022-08-06 07:00:27 GMT 43.628571 7.172241 700 44 129 -768
2022-08-06 07:00:22 GMT 43.626431 7.169298 750 45 128 -512
2022-08-06 07:00:17 GMT 43.624428 7.166552 775 46 128 -384
2022-08-06 07:00:06 GMT 43.619678 7.159620 850 45 129 -384
2022-08-06 06:59:57 GMT 43.615910 7.154454 900 44 129 -256
2022-08-06 06:59:53 GMT 43.613617 7.151780 925 32 128 -256
2022-08-06 06:59:42 GMT 43.608444 7.147820 975 18 129 -448
2022-08-06 06:59:23 GMT 43.597286 7.147718 1,100 356 132 -512
2022-08-06 06:59:19 GMT 43.594822 7.148241 1,200 351 132 -768
2022-08-06 06:58:46 GMT 43.574615 7.152165 1,700 354 132 -896
2022-08-06 06:58:25 GMT 43.561386 7.153760 1,900 357 131 -832
2022-08-06 06:58:22 GMT 43.558464 7.154061 2,050 357 132 -704
2022-08-06 06:58:10 GMT 43.552784 7.154585 2,150 357 132 -640
2022-08-06 06:58:01 GMT 43.547012 7.155108 2,275 357 132 -704
2022-08-06 06:57:57 GMT 43.544678 7.155293 2,325 357 133 -768
2022-08-06 06:57:56 GMT 43.544128 7.155357 2,325 357 133 -768
2022-08-06 06:57:55 GMT 43.543442 7.155421 2,350 357 134 -768
2022-08-06 06:57:51 GMT 43.540466 7.155677 2,400 357 135 -832
2022-08-06 06:57:49 GMT 43.539845 7.155762 2,400 357 136 -832
2022-08-06 06:57:48 GMT 43.539139 7.155804 2,425 357 136 -832
2022-08-06 06:57:47 GMT 43.537903 7.155932 2,450 357 139 -832
2022-08-06 06:57:41 GMT 43.534721 7.156219 2,525 357 139 -832
2022-08-06 06:57:39 GMT 43.533737 7.156315 2,525 357 139 -768
2022-08-06 06:57:30 GMT 43.527786 7.156762 2,625 358 148 -576
2022-08-06 06:57:19 GMT 43.520142 7.157337 2,775 357 153 -896
2022-08-06 06:57:13 GMT 43.513321 7.158104 2,875 355 154 -768
2022-08-06 06:57:10 GMT 43.513321 7.158104 2,925 355 154 -768
2022-08-06 06:56:59 GMT 43.505814 7.159097 2,975 355 155 0
2022-08-06 06:56:49 GMT 43.498318 7.160078 2,950 355 168 64
2022-08-06 06:56:39 GMT 43.490204 7.160978 2,950 357 187 64
2022-08-06 06:56:30 GMT 43.481140 7.161516 2,975 359 202 -192
2022-08-06 06:56:18 GMT 43.470566 7.162000 3,100 356 214 -896
2022-08-06 06:56:12 GMT 43.464478 7.163597 3,225 343 225 -1472
2022-08-06 06:56:09 GMT 43.461494 7.165179 3,325 336 230 -1664
2022-08-06 06:55:58 GMT 43.451859 7.173745 3,625 322 246 -1280
2022-08-06 06:55:52 GMT 43.446133 7.179892 3,675 322 261 -512
2022-08-06 06:55:47 GMT 43.441086 7.185442 3,800 322 271 -1344
2022-08-06 06:55:38 GMT 43.432663 7.194640 4,025 322 276 -1920
2022-08-06 06:55:28 GMT 43.422207 7.206443 4,450 321 278 -2432
2022-08-06 06:55:18 GMT 43.411331 7.218592 4,850 323 280 -2240
2022-08-06 06:55:08 GMT 43.401764 7.227088 5,225 337 279 -2560
2022-08-06 06:55:01 GMT 43.393341 7.231176 5,500 348 278 -2368
2022-08-06 06:54:58 GMT 43.388763 7.232389 5,650 353 279 -2304
2022-08-06 06:54:53 GMT 43.381752 7.232797 5,850 4 279 -2368
2022-08-06 06:54:48 GMT 43.376266 7.232006 6,025 12 279 -2432
2022-08-06 06:54:38 GMT 43.363724 7.225938 6,450 31 280 -2368
2022-08-06 06:54:31 GMT 43.356846 7.219522 6,700 40 280 -2240
2022-08-06 06:54:27 GMT 43.353073 7.214617 6,825 47 281 -2112
2022-08-06 06:54:21 GMT 43.348095 7.205854 7,050 57 284 -1984
2022-08-06 06:54:16 GMT 43.344833 7.197418 7,225 66 285 -1920
2022-08-06 06:54:08 GMT 43.341705 7.182759 7,475 81 286 -2048
2022-08-06 06:54:00 GMT 43.341019 7.170345 7,725 90 286 -2304
2022-08-06 06:53:57 GMT 43.341293 7.163725 7,875 96 285 -2368
2022-08-06 06:53:51 GMT 43.342667 7.153441 8,075 105 284 -2240
2022-08-06 06:53:47 GMT 43.344360 7.146223 8,225 113 284 -1920
2022-08-06 06:53:43 GMT 43.346371 7.140459 8,450 125 284 -1344
2022-08-06 06:53:39 GMT 43.349716 7.133257 8,450 125 284 -1344
2022-08-06 06:53:36 GMT 43.351364 7.130382 8,475 134 284 -832
2022-08-06 06:53:31 GMT 43.356892 7.122803 8,575 139 285 -640
2022-08-06 06:53:27 GMT 43.361176 7.118487 8,600 148 287 -576
2022-08-06 06:53:22 GMT 43.366436 7.114563 8,650 157 290 -576
2022-08-06 06:53:19 GMT 43.369648 7.112732 8,675 167 295 -576
2022-08-06 06:53:15 GMT 43.375511 7.110378 8,700 166 294 -576
2022-08-06 06:53:10 GMT 43.382126 7.109049 8,750 175 301 -640
2022-08-06 06:53:06 GMT 43.387619 7.108793 8,800 182 306 -640
2022-08-06 06:52:57 GMT 43.401814 7.109789 8,900 184 320 -640
2022-08-06 06:52:49 GMT 43.412338 7.110582 8,975 184 339 -1088
2022-08-06 06:52:45 GMT 43.418526 7.111097 9,025 184 332 -832
2022-08-06 06:52:38 GMT 43.429096 7.111882 9,150 184 339 -1088
2022-08-06 06:52:34 GMT 43.436218 7.112470 9,225 184 347 -1216
2022-08-06 06:52:32 GMT 43.438965 7.112667 9,275 184 348 -1216
2022-08-06 06:52:29 GMT 43.444595 7.113124 9,325 184 353 -1216
2022-08-06 06:52:28 GMT 43.446224 7.113255 9,350 184 354 -1216
2022-08-06 06:52:27 GMT 43.447952 7.113328 9,375 184 355 -1216
2022-08-06 06:52:26 GMT 43.460983 7.114301 9,550 184 359 -1280
2022-08-06 06:52:19 GMT 43.460983 7.114301 9,550 183 364 -1408
2022-08-06 06:52:18 GMT 43.462784 7.114478 9,575 183 365 -1472
2022-08-06 06:52:17 GMT 43.471550 7.115086 9,650 183 370 -1600
2022-08-06 06:52:13 GMT 43.471550 7.115086 9,725 183 372 -1664
2022-08-06 06:52:12 GMT 43.473087 7.115217 9,750 183 374 -1728
2022-08-06 06:52:09 GMT 43.479767 7.115691 9,875 183 376 -1856
2022-08-06 06:52:04 GMT 43.486221 7.116075 10,000 183 380 -1984
2022-08-06 06:52:01 GMT 43.492264 7.116458 10,125 183 384 -3200
2022-08-06 06:51:59 GMT 43.494827 7.116656 10,550 183 385 -4032
2022-08-06 06:51:54 GMT 43.504166 7.117224 10,550 183 385 -4032
2022-08-06 06:51:52 GMT 43.507816 7.117375 10,675 183 385 -3904
2022-08-06 06:51:51 GMT 43.509476 7.117480 10,750 183 386 -3840
2022-08-06 06:51:50 GMT 43.515198 7.117799 10,950 183 386 -3904
2022-08-06 06:51:48 GMT 43.515198 7.117799 10,950 183 386 -3904
2022-08-06 06:51:47 GMT 43.516983 7.117927 11,025 183 386 -3904
2022-08-06 06:51:46 GMT 43.520737 7.118119 11,150 183 387 -4032
2022-08-06 06:51:44 GMT 43.522617 7.118225 11,225 183 387 -4032
2022-08-06 06:51:43 GMT 43.528530 7.118487 11,450 183 387 -3968
2022-08-06 06:51:41 GMT 43.528530 7.118487 11,450 183 388 -3776
2022-08-06 06:51:39 GMT 43.532116 7.118683 11,575 183 389 -3648
2022-08-06 06:51:37 GMT 43.535614 7.118885 11,675 183 389 -3648
2022-08-06 06:51:34 GMT 43.541473 7.119206 11,875 183 391 -3648
2022-08-06 06:51:32 GMT 43.547195 7.119460 12,075 182 392 -3648
2022-08-06 06:51:30 GMT 43.550812 7.119652 12,175 182 393 -3456
2022-08-06 06:51:28 GMT 43.552460 7.119715 12,250 182 393 -3392
2022-08-06 06:51:27 GMT 43.554245 7.119779 12,300 182 394 -3264
2022-08-06 06:51:25 GMT 43.557812 7.119925 12,400 183 395 -3072
2022-08-06 06:51:24 GMT 43.559628 7.120056 12,450 183 396 -3008
2022-08-06 06:51:22 GMT 43.563583 7.120226 12,550 183 396 -3008
2022-08-06 06:51:21 GMT 43.565308 7.120318 12,600 183 396 -3008
2022-08-06 06:51:20 GMT 43.567123 7.120383 12,650 183 397 -3008
2022-08-06 06:51:19 GMT 43.570724 7.120546 12,750 183 397 -3008
2022-08-06 06:51:17 GMT 43.572475 7.120645 12,800 183 397 -3072
2022-08-06 06:51:16 GMT 43.574291 7.120710 12,850 183 397 -3200
2022-08-06 06:51:14 GMT 43.578156 7.120906 12,950 182 397 -3392
2022-08-06 06:51:13 GMT 43.579971 7.120972 13,025 182 396 -3456
2022-08-06 06:51:11 GMT 43.583649 7.121168 13,125 182 396 -3456
2022-08-06 06:51:10 GMT 43.585602 7.121248 13,175 182 396 -3456
2022-08-06 06:51:09 GMT 43.587250 7.121312 13,250 182 396 -3456
2022-08-06 06:51:08 GMT 43.591095 7.121440 13,350 182 396 -3328
2022-08-06 06:51:06 GMT 43.592819 7.121560 13,425 182 396 -3328
2022-08-06 06:51:05 GMT 43.596405 7.121696 13,500 182 396 -3264
2022-08-06 06:51:03 GMT 43.598236 7.121759 13,575 182 396 -3200
2022-08-06 06:51:02 GMT 43.599987 7.121822 13,625 182 396 -3200
2022-08-06 06:51:00 GMT 43.603432 7.121887 13,725 182 396 -3200
2022-08-06 06:50:59 GMT 43.605377 7.121951 13,775 182 396 -3136
2022-08-06 06:50:56 GMT 43.609222 7.122079 13,875 182 396 -3008
2022-08-06 06:50:55 GMT 43.611053 7.122143 13,925 182 396 -2752
2022-08-06 06:50:54 GMT 43.612976 7.122214 13,975 182 397 -2560
2022-08-06 06:50:53 GMT 43.616913 7.122334 14,050 182 398 -1920
2022-08-06 06:50:51 GMT 43.618656 7.122410 14,075 182 399 -1728
2022-08-06 06:50:50 GMT 43.620255 7.122462 14,100 182 399 -1536
2022-08-06 06:50:49 GMT 43.621902 7.122526 14,125 182 400 -1472
2022-08-06 06:50:47 GMT 43.625870 7.122672 14,200 182 402 -1600
2022-08-06 06:50:45 GMT 43.631561 7.122781 14,275 182 403 -1920
2022-08-06 06:50:43 GMT 43.633507 7.122868 14,300 182 404 -1856
2022-08-06 06:50:41 GMT 43.636414 7.122909 14,350 182 405 -1792
2022-08-06 06:50:40 GMT 43.641129 7.123037 14,425 182 406 -1920
2022-08-06 06:50:39 GMT 43.641129 7.123037 14,450 182 406 -2048
2022-08-06 06:50:37 GMT 43.644104 7.123165 14,500 182 407 -2112
2022-08-06 06:50:35 GMT 43.647720 7.123229 14,575 182 407 -2368
2022-08-06 06:50:34 GMT 43.649471 7.123260 14,625 182 408 -2432
2022-08-06 06:50:33 GMT 43.651291 7.123356 14,650 182 408 -2560
2022-08-06 06:50:31 GMT 43.654781 7.123457 14,750 182 408 -2688
2022-08-06 06:50:30 GMT 43.656876 7.123522 14,800 182 409 -2752
2022-08-06 06:50:29 GMT 43.659714 7.123587 14,850 182 409 -2816
2022-08-06 06:50:27 GMT 43.663742 7.123740 14,975 182 409 -2880
2022-08-06 06:50:26 GMT 43.667442 7.123849 15,050 182 409 -2816
2022-08-06 06:50:22 GMT 43.672192 7.123980 15,175 182 409 -2880
2022-08-06 06:50:21 GMT 43.674179 7.124059 15,225 182 409 -2944
2022-08-06 06:50:20 GMT 43.676334 7.124176 15,300 182 409 -3072
2022-08-06 06:50:18 GMT 43.680222 7.124314 15,400 182 409 -3264
2022-08-06 06:50:17 GMT 43.682144 7.124378 15,450 182 409 -3328
2022-08-06 06:50:14 GMT 43.687408 7.124570 15,600 182 409 -3328
2022-08-06 06:50:13 GMT 43.689415 7.124634 15,675 182 409 -3264
2022-08-06 06:50:12 GMT 43.694046 7.124825 15,775 182 409 -3264
2022-08-06 06:50:11 GMT 43.694046 7.124825 15,800 182 409 -3200
2022-08-06 06:50:09 GMT 43.697067 7.124889 15,875 182 409 -3136
2022-08-06 06:50:08 GMT 43.701145 7.125092 16,000 182 409 -3072
2022-08-06 06:50:07 GMT 43.701145 7.125092 16,000 182 409 -3072
2022-08-06 06:50:05 GMT 43.704803 7.125209 16,100 182 409 -3008
2022-08-06 06:50:03 GMT 43.708500 7.125353 16,200 182 410 -2752
2022-08-06 06:50:02 GMT 43.710224 7.125419 16,225 182 410 -2624
2022-08-06 06:50:01 GMT 43.713062 7.125484 16,300 182 411 -2432
2022-08-06 06:50:00 GMT 43.714874 7.125592 16,325 182 411 -2432
2022-08-06 06:49:58 GMT 43.717625 7.125680 16,400 182 411 -2368
2022-08-06 06:49:56 GMT 43.721813 7.125811 16,475 182 412 -2368
2022-08-06 06:49:55 GMT 43.723801 7.125911 16,525 182 413 -2432
2022-08-06 06:49:54 GMT 43.725632 7.125942 16,550 182 413 -2496
2022-08-06 06:49:53 GMT 43.729340 7.126103 16,650 182 413 -2816
2022-08-06 06:49:51 GMT 43.731171 7.126138 16,700 182 413 -3200
2022-08-06 06:49:50 GMT 43.734802 7.126269 16,800 182 413 -3712
2022-08-06 06:49:48 GMT 43.736526 7.126334 16,850 182 413 -3712
2022-08-06 06:49:47 GMT 43.738434 7.126399 16,925 182 413 -3712
2022-08-06 06:49:45 GMT 43.742157 7.126550 17,025 182 412 -3968
2022-08-06 06:49:44 GMT 43.744160 7.126596 17,100 182 411 -4096
2022-08-06 06:49:43 GMT 43.746071 7.126661 17,175 182 411 -4224
2022-08-06 06:49:40 GMT 43.751862 7.126806 17,400 182 409 -4480
2022-08-06 06:49:38 GMT 43.755798 7.126869 17,575 181 408 -4736
2022-08-06 06:49:37 GMT 43.757801 7.126923 17,650 181 406 -4864
2022-08-06 06:49:36 GMT 43.759735 7.126997 17,725 181 405 -4864
2022-08-06 06:49:35 GMT 43.761711 7.127053 17,825 181 404 -4864
2022-08-06 06:49:34 GMT 43.763855 7.127125 17,900 181 403 -4864
2022-08-06 06:49:33 GMT 43.765854 7.127119 18,000 181 402 -4800
2022-08-06 06:49:32 GMT 43.767902 7.127184 18,100 181 401 -4800
2022-08-06 06:49:31 GMT 43.771580 7.127250 18,250 181 400 -4736
2022-08-06 06:49:29 GMT 43.773441 7.127315 18,325 181 399 -4736
2022-08-06 06:49:28 GMT 43.775208 7.127316 18,400 181 398 -4672
2022-08-06 06:49:26 GMT 43.779236 7.127380 18,575 181 396 -4608
2022-08-06 06:49:25 GMT 43.781170 7.127446 18,650 181 395 -4544
2022-08-06 06:49:23 GMT 43.786926 7.127508 18,875 181 393 -4480
2022-08-06 06:49:20 GMT 43.790543 7.127508 18,975 181 392 -4480
2022-08-06 06:49:18 GMT 43.793976 7.127572 19,175 181 390 -4480
2022-08-06 06:49:16 GMT 43.797508 7.127577 19,325 181 388 -4416
2022-08-06 06:49:15 GMT 43.799278 7.127577 19,400 181 387 -4352
2022-08-06 06:49:14 GMT 43.801163 7.127572 19,475 181 386 -4352
2022-08-06 06:49:11 GMT 43.806633 7.127642 19,675 181 384 -4160
2022-08-06 06:49:10 GMT 43.808403 7.127642 19,750 181 384 -4160
2022-08-06 06:49:08 GMT 43.811752 7.127707 19,875 181 382 -3968
2022-08-06 06:49:07 GMT 43.813522 7.127707 19,950 181 382 -3904
2022-08-06 06:49:05 GMT 43.817245 7.127773 20,075 181 380 -3776
2022-08-06 06:49:04 GMT 43.819016 7.127773 20,150 181 380 -3776
2022-08-06 06:49:01 GMT 43.829590 7.128019 20,500 182 377 -3648
2022-08-06 06:48:58 GMT 43.829590 7.128019 20,500 182 376 -3648
2022-08-06 06:48:57 GMT 43.831261 7.128100 20,575 185 373 -3456
2022-08-06 06:48:55 GMT 43.834625 7.128275 20,675 185 373 -3456
2022-08-06 06:48:53 GMT 43.838009 7.128492 20,800 185 373 -3456
2022-08-06 06:48:51 GMT 43.841354 7.128786 20,900 185 373 -3200
2022-08-06 06:48:50 GMT 43.843094 7.129041 20,950 187 372 -3008
2022-08-06 06:48:48 GMT 43.846664 7.129616 21,050 190 371 -2432
2022-08-06 06:48:43 GMT 43.855453 7.132043 21,275 207 370 -2240
2022-08-06 06:48:40 GMT 43.860447 7.134116 21,425 207 370 -2240
2022-08-06 06:48:36 GMT 43.865894 7.137059 21,475 205 370 -2176
2022-08-06 06:48:29 GMT 43.876602 7.145201 21,775 217 369 -2176
2022-08-06 06:48:26 GMT 43.881908 7.150530 21,875 220 368 -2240
2022-08-06 06:48:25 GMT 43.883011 7.151844 21,925 221 368 -2368
2022-08-06 06:48:22 GMT 43.886375 7.156023 22,025 224 368 -2560
2022-08-06 06:48:18 GMT 43.890518 7.162064 22,375 230 367 -2752
2022-08-06 06:48:15 GMT 43.895130 7.170279 22,375 234 366 -2688
2022-08-06 06:48:12 GMT 43.897179 7.174595 22,525 237 365 -2688
2022-08-06 06:48:09 GMT 43.899307 7.179757 22,650 245 364 -2752
2022-08-06 06:48:06 GMT 43.901367 7.185633 22,925 253 363 -2624
2022-08-06 06:48:02 GMT 43.904068 7.195406 22,925 253 363 -2624
2022-08-06 06:47:59 GMT 43.905323 7.201603 23,050 260 363 -2560
2022-08-06 06:47:56 GMT 43.906357 7.208309 23,150 262 363 -2624
2022-08-06 06:47:52 GMT 43.907043 7.215910 23,300 267 363 -2688
2022-08-06 06:47:51 GMT 43.907280 7.225342 23,375 272 364 -2688
2022-08-06 06:47:49 GMT 43.907280 7.225342 23,500 272 364 -2688
2022-08-06 06:47:46 GMT 43.907135 7.230090 23,575 277 364 -2688
2022-08-06 06:47:45 GMT 43.906998 7.232453 23,625 277 364 -2688
2022-08-06 06:47:44 GMT 43.906586 7.237052 23,725 280 363 -2688
2022-08-06 06:47:42 GMT 43.906128 7.241204 23,800 282 363 -2688
2022-08-06 06:47:40 GMT 43.905510 7.245418 23,925 287 364 -2688
2022-08-06 06:47:38 GMT 43.904617 7.250018 24,175 287 364 -2688
2022-08-06 06:47:35 GMT 43.902969 7.256853 24,175 289 364 -2688
2022-08-06 06:47:31 GMT 43.900589 7.264582 24,550 298 364 -2752
2022-08-06 06:47:27 GMT 43.897270 7.273080 24,550 306 365 -2368
2022-08-06 06:47:24 GMT 43.894756 7.278377 24,550 306 365 -2368
2022-08-06 06:47:21 GMT 43.891590 7.284197 24,675 310 366 -1920
2022-08-06 06:47:19 GMT 43.889465 7.287640 24,725 313 367 -1728
2022-08-06 06:47:17 GMT 43.886902 7.291409 24,800 315 368 -1600
2022-08-06 06:47:16 GMT 43.885632 7.293156 24,825 317 368 -1536
2022-08-06 06:47:15 GMT 43.884144 7.295118 24,850 321 370 -1280
2022-08-06 06:47:14 GMT 43.883057 7.296455 24,875 321 370 -1280
2022-08-06 06:47:13 GMT 43.881638 7.298116 24,900 323 371 -1024
2022-08-06 06:47:08 GMT 43.874928 7.304927 24,975 327 373 -832
2022-08-06 06:47:06 GMT 43.871853 7.307608 25,025 333 375 -832
2022-08-06 06:47:05 GMT 43.870316 7.308851 25,050 333 375 -832
2022-08-06 06:47:03 GMT 43.866501 7.311598 25,075 335 377 -832
2022-08-06 06:47:02 GMT 43.865616 7.312168 25,075 337 376 -832
2022-08-06 06:47:01 GMT 43.863373 7.313509 25,100 338 377 -832
2022-08-06 06:46:58 GMT 43.859425 7.315717 25,125 340 377 -896
2022-08-06 06:46:57 GMT 43.857609 7.316698 25,150 340 378 -960
2022-08-06 06:46:56 GMT 43.856049 7.317469 25,150 341 378 -1088
2022-08-06 06:46:54 GMT 43.851837 7.319445 25,200 342 381 -1344
2022-08-06 06:46:53 GMT 43.846809 7.321799 25,275 342 382 -1344
2022-08-06 06:46:51 GMT 43.846809 7.321799 25,275 342 382 -1344
2022-08-06 06:46:50 GMT 43.845062 7.322643 25,300 342 382 -1344
2022-08-06 06:46:48 GMT 43.841969 7.324088 25,350 342 382 -1408
2022-08-06 06:46:46 GMT 43.839523 7.325198 25,375 342 383 -1536
2022-08-06 06:46:45 GMT 43.836891 7.326377 25,425 342 383 -1600
2022-08-06 06:46:44 GMT 43.835217 7.327162 25,450 342 384 -1600
2022-08-06 06:46:43 GMT 43.833729 7.327881 25,475 342 384 -1664
2022-08-06 06:46:41 GMT 43.830143 7.329516 25,525 342 385 -1664
2022-08-06 06:46:40 GMT 43.828400 7.330308 25,575 342 385 -1664
2022-08-06 06:46:39 GMT 43.826706 7.331075 25,600 342 385 -1664
2022-08-06 06:46:38 GMT 43.823318 7.332671 25,650 342 386 -1664
2022-08-06 06:46:36 GMT 43.821259 7.333566 25,675 342 386 -1664
2022-08-06 06:46:35 GMT 43.819668 7.334355 25,725 342 387 -1664
2022-08-06 06:46:33 GMT 43.816681 7.335673 25,775 342 388 -1792
2022-08-06 06:46:31 GMT 43.813057 7.337363 25,825 342 388 -1856
2022-08-06 06:46:30 GMT 43.811417 7.338165 25,850 342 388 -1856
2022-08-06 06:46:29 GMT 43.807846 7.339761 25,925 342 388 -1856
2022-08-06 06:46:27 GMT 43.806076 7.340633 25,950 342 388 -1856
2022-08-06 06:46:26 GMT 43.804276 7.341422 26,000 342 388 -1856
2022-08-06 06:46:24 GMT 43.800953 7.342987 26,050 342 389 -1728
2022-08-06 06:46:23 GMT 43.799149 7.343785 26,075 342 389 -1728
2022-08-06 06:46:22 GMT 43.797321 7.344622 26,100 342 389 -1728
2022-08-06 06:46:21 GMT 43.795532 7.345446 26,150 342 390 -1728
2022-08-06 06:46:19 GMT 43.792465 7.346851 26,200 342 390 -1728
2022-08-06 06:46:18 GMT 43.790588 7.347746 26,225 342 391 -1728
2022-08-06 06:46:17 GMT 43.787548 7.349134 26,275 342 391 -1792
2022-08-06 06:46:15 GMT 43.785782 7.349917 26,300 342 391 -1792
2022-08-06 06:46:14 GMT 43.783859 7.350812 26,325 342 392 -1792
2022-08-06 06:46:13 GMT 43.780331 7.352404 26,400 342 393 -1856
2022-08-06 06:46:10 GMT 43.778610 7.353189 26,425 342 393 -1920
2022-08-06 06:46:09 GMT 43.776886 7.353973 26,475 342 393 -1984
2022-08-06 06:46:07 GMT 43.773193 7.355666 26,525 342 394 -2112
2022-08-06 06:46:06 GMT 43.771637 7.356433 26,575 342 394 -2176
2022-08-06 06:46:04 GMT 43.768089 7.358028 26,625 342 393 -2240
2022-08-06 06:46:03 GMT 43.766281 7.358860 26,700 342 393 -2304
2022-08-06 06:46:02 GMT 43.764359 7.359754 26,725 342 393 -2304
2022-08-06 06:46:00 GMT 43.760925 7.361287 26,800 342 393 -2368
2022-08-06 06:45:59 GMT 43.759186 7.362117 26,825 342 393 -2304
2022-08-06 06:45:58 GMT 43.757629 7.362820 26,875 342 394 -2304
2022-08-06 06:45:56 GMT 43.754196 7.364417 26,950 342 394 -2304
2022-08-06 06:45:55 GMT 43.752541 7.365156 26,975 342 394 -2240
2022-08-06 06:45:54 GMT 43.750900 7.365886 27,025 342 394 -2240
2022-08-06 06:45:53 GMT 43.747421 7.367483 27,075 342 394 -2240
2022-08-06 06:45:49 GMT 43.741833 7.370061 27,175 342 394 -2176
2022-08-06 06:45:48 GMT 43.740189 7.370804 27,225 342 394 -2176
2022-08-06 06:45:47 GMT 43.738525 7.371565 27,275 342 394 -2176
2022-08-06 06:45:46 GMT 43.735222 7.373069 27,325 342 394 -2176
2022-08-06 06:45:44 GMT 43.733597 7.373806 27,375 342 394 -2176
2022-08-06 06:45:43 GMT 43.731964 7.374573 27,400 342 394 -2176
2022-08-06 06:45:41 GMT 43.728474 7.376142 27,475 342 394 -2112
2022-08-06 06:45:40 GMT 43.726685 7.376936 27,500 342 394 -2048
2022-08-06 06:45:39 GMT 43.724701 7.377842 27,550 342 394 -2048
2022-08-06 06:45:37 GMT 43.721397 7.379347 27,600 342 394 -1920
2022-08-06 06:45:36 GMT 43.719486 7.380262 27,650 342 394 -1856
2022-08-06 06:45:35 GMT 43.717953 7.380916 27,675 342 394 -1792
2022-08-06 06:45:32 GMT 43.712311 7.383515 27,750 342 394 -1600
2022-08-06 06:45:30 GMT 43.708920 7.385036 27,800 342 394 -1408
2022-08-06 06:45:29 GMT 43.707092 7.385878 27,825 342 394 -1408
2022-08-06 06:45:28 GMT 43.705288 7.386736 27,850 342 395 -1280
2022-08-06 06:45:26 GMT 43.701874 7.388242 27,900 342 395 -1152
2022-08-06 06:45:25 GMT 43.700073 7.389090 27,900 342 395 -1088
2022-08-06 06:45:22 GMT 43.696335 7.390797 27,950 342 395 -896
2022-08-06 06:45:21 GMT 43.693604 7.392033 27,950 342 397 -640
2022-08-06 06:45:19 GMT 43.690159 7.393603 27,975 342 397 -448
2022-08-06 06:45:18 GMT 43.686401 7.395332 28,000 342 397 -256
2022-08-06 06:45:15 GMT 43.682556 7.397056 28,000 342 398 -64
2022-08-06 06:45:12 GMT 43.678104 7.399096 28,000 342 398 64
2022-08-06 06:45:11 GMT 43.675552 7.400250 28,000 342 398 64
2022-08-06 06:45:09 GMT 43.672703 7.401581 28,000 342 398 0
2022-08-06 06:45:08 GMT 43.670746 7.402431 28,000 342 398 0
2022-08-06 06:45:07 GMT 43.668839 7.403346 28,000 342 398 0
2022-08-06 06:45:05 GMT 43.665348 7.404916 28,000 342 398 0
2022-08-06 06:45:04 GMT 43.663578 7.405701 28,000 342 398 0
2022-08-06 06:45:03 GMT 43.660172 7.407276 28,000 342 398 0
2022-08-06 06:45:01 GMT 43.658432 7.408043 28,000 342 398 0
2022-08-06 06:45:00 GMT 43.656693 7.408873 28,000 342 398 0
2022-08-06 06:44:59 GMT 43.653244 7.410409 28,000 342 398 0
2022-08-06 06:44:57 GMT 43.651428 7.411236 28,000 342 398 0
2022-08-06 06:44:56 GMT 43.649506 7.412131 28,000 342 398 0
2022-08-06 06:44:54 GMT 43.646164 7.413664 28,000 342 398 0
2022-08-06 06:44:53 GMT 43.644424 7.414430 28,000 342 398 0
2022-08-06 06:44:52 GMT 43.642769 7.415183 28,000 342 398 0
2022-08-06 06:44:51 GMT 43.639278 7.416818 28,000 342 398 0
2022-08-06 06:44:49 GMT 43.637421 7.417624 28,000 342 398 0
2022-08-06 06:44:48 GMT 43.635681 7.418454 28,000 342 398 0
2022-08-06 06:44:44 GMT 43.628494 7.421712 28,000 342 399 0
2022-08-06 06:44:38 GMT 43.617462 7.426694 28,000 342 399 0
2022-08-06 06:44:35 GMT 43.612324 7.429047 28,000 342 398 0
2022-08-06 06:44:31 GMT 43.605156 7.432316 28,000 342 398 -64
2022-08-06 06:44:27 GMT 43.599709 7.434801 28,000 342 398 -64
2022-08-06 06:44:25 GMT 43.593887 7.437489 28,000 342 398 -64
2022-08-06 06:44:22 GMT 43.590179 7.439149 28,025 342 398 -64
2022-08-06 06:44:18 GMT 43.582169 7.442854 28,025 342 398 -64
2022-08-06 06:44:14 GMT 43.576721 7.445345 28,025 342 398 -64
2022-08-06 06:44:08 GMT 43.564934 7.450758 28,025 342 398 -64
2022-08-06 06:44:04 GMT 43.558651 7.453635 28,025 342 398 -64
2022-08-06 06:43:57 GMT 43.540634 7.461940 28,025 342 398 64
2022-08-06 06:43:54 GMT 43.540634 7.461940 28,025 342 398 0
2022-08-06 06:43:48 GMT 43.529461 7.467106 28,025 342 398 64
2022-08-06 06:43:44 GMT 43.523438 7.469873 28,025 342 398 64
2022-08-06 06:43:41 GMT 43.517731 7.472469 28,025 342 398 64
2022-08-06 06:43:38 GMT 43.512039 7.475047 28,000 342 399 64
2022-08-06 06:43:34 GMT 43.506001 7.477831 28,000 342 399 64
2022-08-06 06:43:30 GMT 43.498829 7.481101 28,000 342 399 0
2022-08-06 06:43:25 GMT 43.491211 7.484564 28,000 342 399 0
2022-08-06 06:43:22 GMT 43.484528 7.487630 28,000 342 400 0
2022-08-06 06:43:15 GMT 43.473740 7.492545 28,000 342 400 0
2022-08-06 06:43:12 GMT 43.467453 7.495357 28,000 342 400 0
2022-08-06 06:43:03 GMT 43.448975 7.503728 28,000 342 400 0
2022-08-06 06:42:52 GMT 43.431980 7.511444 28,000 342 400 0
2022-08-06 06:42:47 GMT 43.424011 7.515223 28,000 340 399 -64
2022-08-06 06:42:42 GMT 43.415588 7.519758 28,000 333 396 0
2022-08-06 06:42:36 GMT 43.406158 7.525507 28,000 336 398 0
2022-08-06 06:42:31 GMT 43.396507 7.531978 28,000 333 396 0
2022-08-06 06:42:27 GMT 43.380913 7.543095 28,000 333 396 64
2022-08-06 06:42:22 GMT 43.380913 7.543095 28,025 333 396 0
2022-08-06 06:42:16 GMT 43.372906 7.548785 28,000 333 396 0
2022-08-06 06:42:11 GMT 43.364365 7.554889 28,000 333 396 -64
2022-08-06 06:42:00 GMT 43.346512 7.567618 28,025 333 396 -64
2022-08-06 06:41:57 GMT 43.340832 7.571673 28,025 333 396 0
2022-08-06 06:41:53 GMT 43.334312 7.576316 28,025 333 396 0
2022-08-06 06:41:49 GMT 43.326874 7.581588 28,025 333 396 64
2022-08-06 06:41:45 GMT 43.322479 7.584718 28,025 333 396 0
2022-08-06 06:41:40 GMT 43.314514 7.590403 28,025 333 396 64
2022-08-06 06:41:33 GMT 43.302933 7.598579 28,000 333 397 64
2022-08-06 06:41:30 GMT 43.298035 7.602092 28,000 333 397 0
2022-08-06 06:41:25 GMT 43.289486 7.608163 28,025 333 397 0
2022-08-06 06:41:20 GMT 43.281990 7.613460 28,025 333 397 -64
2022-08-06 06:41:15 GMT 43.272678 7.620065 28,025 333 397 -64
2022-08-06 06:41:11 GMT 43.264252 7.626045 28,025 333 397 -64
2022-08-06 06:41:07 GMT 43.259319 7.629547 28,025 333 396 64
2022-08-06 06:41:04 GMT 43.255875 7.631967 28,025 333 396 64
2022-08-06 06:41:02 GMT 43.251637 7.634975 28,025 333 396 64
2022-08-06 06:40:55 GMT 43.239906 7.643345 28,000 333 397 64
2022-08-06 06:40:49 GMT 43.231110 7.649558 28,000 333 397 0
2022-08-06 06:40:45 GMT 43.223755 7.654790 28,000 333 397 0
2022-08-06 06:40:40 GMT 43.215607 7.660544 28,000 333 397 -64
2022-08-06 06:40:36 GMT 43.209320 7.665008 28,000 333 397 0
2022-08-06 06:40:29 GMT 43.198475 7.672708 28,000 333 397 0
2022-08-06 06:40:26 GMT 43.192890 7.676631 28,000 333 397 0
2022-08-06 06:40:23 GMT 43.188721 7.679571 28,000 333 397 64
2022-08-06 06:40:19 GMT 43.181622 7.684610 28,000 333 397 64
2022-08-06 06:40:15 GMT 43.175034 7.689280 28,000 333 397 64
2022-08-06 06:40:10 GMT 43.166306 7.695465 28,000 333 397 64
2022-08-06 06:40:05 GMT 43.159378 7.700330 28,000 333 397 64
2022-08-06 06:40:00 GMT 43.149132 7.707563 28,000 333 398 0
2022-08-06 06:39:54 GMT 43.140331 7.713776 27,975 333 398 -64
2022-08-06 06:39:50 GMT 43.134201 7.718151 28,000 333 397 -64
2022-08-06 06:39:43 GMT 43.122253 7.726518 28,000 333 397 0
2022-08-06 06:39:41 GMT 43.119186 7.728690 28,000 333 397 128
2022-08-06 06:39:38 GMT 43.113968 7.732395 27,975 333 397 128
2022-08-06 06:39:34 GMT 43.107422 7.736994 27,975 333 397 64
2022-08-06 06:39:29 GMT 43.099506 7.742615 27,975 333 397 0
2022-08-06 06:39:25 GMT 43.093452 7.746865 27,975 333 397 64
2022-08-06 06:39:19 GMT 43.083115 7.754176 27,975 333 397 64
2022-08-06 06:39:15 GMT 43.076508 7.758833 27,975 333 397 0
2022-08-06 06:39:08 GMT 43.066219 7.766091 27,975 333 397 -64
2022-08-06 06:39:05 GMT 43.054813 7.774135 27,975 333 397 -64
2022-08-06 06:38:58 GMT 43.049881 7.777682 27,975 333 396 -64
2022-08-06 06:38:55 GMT 43.043976 7.781770 27,975 333 396 -64
2022-08-06 06:38:52 GMT 43.041313 7.783683 27,975 333 397 0
2022-08-06 06:38:49 GMT 43.032761 7.789690 27,975 333 397 0
2022-08-06 06:38:42 GMT 43.024292 7.795630 28,000 333 397 -64
2022-08-06 06:38:38 GMT 43.016785 7.800932 28,000 333 397 -64
2022-08-06 06:38:32 GMT 43.007889 7.807159 28,000 333 397 0
2022-08-06 06:38:28 GMT 43.000534 7.812326 28,000 333 397 0
2022-08-06 06:38:22 GMT 42.991596 7.818604 28,000 333 396 -64
2022-08-06 06:38:18 GMT 42.984241 7.823770 28,000 333 397 -64
2022-08-06 06:38:12 GMT 42.975395 7.829917 28,000 333 397 0
2022-08-06 06:38:08 GMT 42.967438 7.835541 28,000 333 397 0
2022-08-06 06:38:03 GMT 42.960480 7.840342 28,000 333 397 0
2022-08-06 06:37:57 GMT 42.949932 7.847770 28,000 333 398 0
2022-08-06 06:37:53 GMT 42.943230 7.852413 28,000 333 398 0
2022-08-06 06:37:47 GMT 42.933918 7.858952 28,000 333 398 0
2022-08-06 06:37:41 GMT 42.923859 7.866019 28,000 333 398 0
2022-08-06 06:37:37 GMT 42.917770 7.870235 28,000 333 398 0
2022-08-06 06:37:33 GMT 42.909710 7.875955 28,000 333 398 0
2022-08-06 06:37:27 GMT 42.901108 7.881924 28,000 333 398 0
2022-08-06 06:37:23 GMT 42.893921 7.886970 28,000 333 398 64
2022-08-06 06:37:20 GMT 42.889984 7.889717 28,000 333 398 64
2022-08-06 06:37:17 GMT 42.884621 7.893481 28,000 333 399 64
2022-08-06 06:37:12 GMT 42.875309 7.900020 28,000 333 399 64
2022-08-06 06:37:07 GMT 42.867828 7.905238 28,000 333 400 0
2022-08-06 06:37:01 GMT 42.859528 7.911072 28,000 333 400 0
2022-08-06 06:36:56 GMT 42.850067 7.917693 28,000 333 400 64
2022-08-06 06:36:51 GMT 42.841743 7.923497 28,000 333 400 0
2022-08-06 06:36:46 GMT 42.834019 7.928859 28,000 333 399 64
2022-08-06 06:36:43 GMT 42.827866 7.933215 28,000 333 399 64
2022-08-06 06:36:36 GMT 42.817657 7.940305 28,000 333 398 0
2022-08-06 06:36:31 GMT 42.808960 7.946361 28,000 333 398 0
2022-08-06 06:36:26 GMT 42.800262 7.952479 28,000 333 399 -64
2022-08-06 06:36:21 GMT 42.792770 7.957679 28,000 333 399 0
2022-08-06 06:36:16 GMT 42.784580 7.963363 28,025 333 399 0
2022-08-06 06:36:11 GMT 42.775269 7.969894 28,000 333 399 0
2022-08-06 06:36:06 GMT 42.767395 7.975388 28,025 333 399 0
2022-08-06 06:36:02 GMT 42.760044 7.980482 28,025 333 400 -64
2022-08-06 06:35:56 GMT 42.750641 7.986997 28,025 333 400 -64
2022-08-06 06:35:52 GMT 42.743500 7.991929 28,025 333 401 -64
2022-08-06 06:35:45 GMT 42.733246 7.999046 28,025 333 401 0
2022-08-06 06:35:41 GMT 42.727478 8.003041 28,000 333 400 192
2022-08-06 06:35:35 GMT 42.716721 8.010469 27,975 333 400 576
2022-08-06 06:35:30 GMT 42.709351 8.015612 27,900 333 400 896
2022-08-06 06:35:25 GMT 42.700699 8.021580 27,800 333 402 1344
2022-08-06 06:35:21 GMT 42.694061 8.026137 27,700 333 402 1600
2022-08-06 06:35:15 GMT 42.684212 8.032986 27,525 333 402 2368
2022-08-06 06:35:11 GMT 42.676849 8.038060 27,325 333 402 2752
2022-08-06 06:35:04 GMT 42.665962 8.045633 26,950 333 405 3840
2022-08-06 06:35:00 GMT 42.659447 8.050168 26,675 333 409 4224
2022-08-06 06:34:55 GMT 42.649948 8.056747 26,250 333 416 4800
2022-08-06 06:34:51 GMT 42.642548 8.061857 25,925 333 420 4928
2022-08-06 06:34:44 GMT 42.631374 8.069650 25,425 333 429 4288
2022-08-06 06:34:41 GMT 42.624939 8.074077 25,175 333 432 4032
2022-08-06 06:34:35 GMT 42.614475 8.081339 24,825 333 437 3264
2022-08-06 06:34:31 GMT 42.606995 8.086562 24,625 333 439 2752
2022-08-06 06:34:24 GMT 42.595596 8.094489 24,350 333 440 2112
2022-08-06 06:34:19 GMT 42.587448 8.100107 24,225 333 440 1664
2022-08-06 06:34:14 GMT 42.577374 8.107080 24,075 334 438 1216
2022-08-06 06:34:10 GMT 42.569733 8.112342 24,025 334 436 576
2022-08-06 06:34:05 GMT 42.559525 8.119396 24,000 334 429 0
2022-08-06 06:34:00 GMT 42.551559 8.124827 24,000 334 425 0
2022-08-06 06:33:54 GMT 42.541443 8.131818 24,000 334 419 0
2022-08-06 06:33:49 GMT 42.533524 8.137249 24,000 334 415 64
2022-08-06 06:33:44 GMT 42.524002 8.143803 23,975 334 409 320
2022-08-06 06:33:40 GMT 42.517368 8.148342 23,950 333 405 640
2022-08-06 06:33:30 GMT 42.500469 8.160031 23,775 333 397 1600
2022-08-06 06:33:22 GMT 42.488434 8.168335 23,550 333 396 1920
2022-08-06 06:33:19 GMT 42.483433 8.171720 23,425 333 396 2368
2022-08-06 06:33:13 GMT 42.474171 8.178172 23,200 333 396 2816
2022-08-06 06:33:09 GMT 42.466625 8.183345 22,950 334 397 3072
2022-08-06 06:33:03 GMT 42.457214 8.189808 22,675 333 398 2816
2022-08-06 06:32:58 GMT 42.449478 8.195177 22,475 334 399 2624
2022-08-06 06:32:54 GMT 42.440838 8.201102 22,250 333 399 2496
2022-08-06 06:32:49 GMT 42.433903 8.205893 22,075 333 399 2432
2022-08-06 06:32:42 GMT 42.422104 8.213966 21,850 334 399 1792
2022-08-06 06:32:39 GMT 42.417206 8.217399 21,775 333 397 1472
2022-08-06 06:32:33 GMT 42.407043 8.224328 21,625 333 394 1216
2022-08-06 06:32:22 GMT 42.389538 8.236361 21,350 334 388 1728
2022-08-06 06:32:12 GMT 42.374546 8.246708 21,025 334 385 2304
2022-08-06 06:32:02 GMT 42.358887 8.257474 20,625 334 384 2240
2022-08-06 06:31:52 GMT 42.342087 8.268960 20,225 334 383 2368
2022-08-06 06:31:42 GMT 42.326431 8.279634 19,825 334 382 2368
2022-08-06 06:31:29 GMT 42.305649 8.293804 19,450 334 380 2304
2022-08-06 06:31:22 GMT 42.294388 8.301544 19,050 333 378 2368
2022-08-06 06:31:12 GMT 42.279068 8.312051 18,650 334 377 2176
2022-08-06 06:31:04 GMT 42.267975 8.319647 18,400 334 374 2112
2022-08-06 06:31:01 GMT 42.262436 8.323454 18,275 334 373 2240
2022-08-06 06:30:55 GMT 42.253559 8.329553 18,050 334 372 2176
2022-08-06 06:30:52 GMT 42.247925 8.333385 17,925 334 370 2240
2022-08-06 06:30:45 GMT 42.237625 8.340433 17,650 334 368 2432
2022-08-06 06:30:41 GMT 42.232052 8.344244 17,500 334 368 2560
2022-08-06 06:30:35 GMT 42.222507 8.350759 17,225 334 367 2816
2022-08-06 06:30:31 GMT 42.216595 8.354783 17,025 334 367 3008
2022-08-06 06:30:25 GMT 42.207275 8.361158 16,725 334 367 3072
2022-08-06 06:30:21 GMT 42.201828 8.364903 16,525 334 367 3072
2022-08-06 06:30:15 GMT 42.191345 8.372019 16,175 334 368 3008
2022-08-06 06:30:10 GMT 42.185120 8.376264 15,975 334 368 3136
2022-08-06 06:30:05 GMT 42.176422 8.382194 15,650 334 368 3264
2022-08-06 06:30:00 GMT 42.169876 8.386626 15,425 334 369 3136
2022-08-06 06:29:54 GMT 42.160641 8.392916 15,125 334 369 3072
2022-08-06 06:29:50 GMT 42.154400 8.397132 14,925 334 369 2880
2022-08-06 06:29:44 GMT 42.145294 8.403355 14,650 334 368 2688
2022-08-06 06:29:41 GMT 42.140064 8.406904 14,500 334 367 2496
2022-08-06 06:29:34 GMT 42.130379 8.413547 14,225 334 365 2368
2022-08-06 06:29:31 GMT 42.124695 8.417400 14,100 334 363 2304
2022-08-06 06:29:23 GMT 42.114319 8.424470 13,825 334 360 2176
2022-08-06 06:29:20 GMT 42.108967 8.428111 13,700 334 358 1984
2022-08-06 06:29:14 GMT 42.099796 8.434306 13,500 334 354 2048
2022-08-06 06:29:10 GMT 42.094257 8.438075 13,375 334 351 2176
2022-08-06 06:29:04 GMT 42.084778 8.444554 13,125 334 348 2432
2022-08-06 06:28:59 GMT 42.078941 8.448486 12,950 334 347 2496
2022-08-06 06:28:54 GMT 42.070095 8.454490 12,700 333 343 2048
2022-08-06 06:28:49 GMT 42.063950 8.458724 12,575 333 340 1792
2022-08-06 06:28:43 GMT 42.056168 8.464092 12,400 333 334 2048
2022-08-06 06:28:40 GMT 42.051430 8.467329 12,275 333 332 2496
2022-08-06 06:28:33 GMT 42.042709 8.473268 11,975 333 330 3072
2022-08-06 06:28:29 GMT 42.037090 8.477166 11,775 333 329 3264
2022-08-06 06:28:20 GMT 42.023895 8.486252 11,300 333 326 2304
2022-08-06 06:28:12 GMT 42.014374 8.492815 11,075 333 319 1600
2022-08-06 06:28:10 GMT 42.010117 8.495802 11,000 333 317 1344
2022-08-06 06:28:02 GMT 42.000778 8.502268 10,825 333 304 1280
2022-08-06 06:27:59 GMT 41.997379 8.504632 10,775 333 302 1344
2022-08-06 06:27:53 GMT 41.989609 8.510160 10,625 333 293 1408
2022-08-06 06:27:48 GMT 41.983555 8.514404 10,475 332 289 1664
2022-08-06 06:27:41 GMT 41.975372 8.520272 10,225 332 280 2688
2022-08-06 06:27:39 GMT 41.973083 8.521957 10,125 332 279 3008
2022-08-06 06:27:31 GMT 41.964111 8.528449 9,725 332 277 3072
2022-08-06 06:27:27 GMT 41.960232 8.531267 9,525 332 276 3392
2022-08-06 06:27:18 GMT 41.949966 8.538749 9,000 332 276 3648
2022-08-06 06:26:48 GMT 41.916824 8.563780 7,200 329 275 3584
2022-08-06 06:26:46 GMT 41.914845 8.566078 7,075 317 276 3456
2022-08-06 06:26:37 GMT 41.907532 8.577513 6,600 303 273 2880
2022-08-06 06:26:27 GMT 41.902039 8.594242 6,125 279 267 2112
2022-08-06 06:26:10 GMT 41.899296 8.621202 5,750 277 268 1344
2022-08-06 06:26:04 GMT 41.898422 8.630635 5,400 278 267 2496
2022-08-06 06:25:57 GMT 41.896957 8.644243 5,025 279 265 3200
2022-08-06 06:25:47 GMT 41.895264 8.658662 4,525 280 266 3904
2022-08-06 06:25:37 GMT 41.893021 8.676265 3,850 281 267 3584

Making use of Plane Finder data

You are free to use the raw flight data, aircraft information and images provided in this report for your own purposes provided the data is correctly attributed to Plane Finder. We ask that you please credit Plane Finder and link to planefinder.net in close proximity to the content.

Optionally one of the following logos (no smaller then 150x24px) can be used and must link to planefinder.net

Embedding the Plane Finder map

You are welcome to embed the Plane Finder playback map on your website to offer visitors a more interactive experience. We suggest using the following HTML code:

<iframe src="//planefinder.net/data/report/U21306-HB-JYJ-7700-squawk-2022-08-06/map" width="800" height="600" seamless="seamless"></iframe>

Where our data comes from

Plane Finder has a global network of data feeds and antenna radars that receive data broadcast directly from aircraft. The primary technologies used are ADS-B and MLAT. We also show feeds from the FAA and a FLARM glider feed.

Click here to find out more about the Plane Finder network.

How we collect our data